Terminal Aerodrome Forecast
Issued by NWS Albuquerque, NM

Home | Current Version | Previous Version | Text Only | Print | Product List | Glossary On
Versions: 1 2 3 4 5 6 7 8 9 10 11 12 13 14 15 16 17 18 19 20
000
FTUS45 KABQ 211200 AAA
TAFABQ
TAF AMD
KABQ 211253Z 2113/2212 01005KT P6SM BKN050
     FM211900 18006KT P6SM VCSH BKN070
     FM212200 17008KT P6SM VCTS BKN070CB
     FM220100 13006KT P6SM VCSH BKN080
     FM220500 11004KT P6SM BKN070=

USA.gov is the U.S. government's official web portal to all federal, state and local government web resources and services.